sensor_id;sensor_type;location;lat;lon;timestamp;pressure;altitude;pressure_sealevel;temperature;humidity
64336;BME280;50672;53.362;-6.240;2023-03-18T00:01:01;100028.84;;;10.52;86.13
64336;BME280;50672;53.362;-6.240;2023-03-18T00:03:30;100034.00;;;10.47;86.09
64336;BME280;50672;53.362;-6.240;2023-03-18T00:06:09;100034.41;;;10.44;85.71
64336;BME280;50672;53.362;-6.240;2023-03-18T00:08:39;100037.50;;;10.41;86.26
64336;BME280;50672;53.362;-6.240;2023-03-18T00:11:07;100044.06;;;10.47;86.26
64336;BME280;50672;53.362;-6.240;2023-03-18T00:13:35;100042.78;;;10.49;85.81
64336;BME280;50672;53.362;-6.240;2023-03-18T00:16:04;100046.19;;;10.51;86.03
64336;BME280;50672;53.362;-6.240;2023-03-18T00:18:32;100055.84;;;10.54;86.23
64336;BME280;50672;53.362;-6.240;2023-03-18T00:21:00;100047.50;;;10.55;86.26
64336;BME280;50672;53.362;-6.240;2023-03-18T00:23:31;100053.75;;;10.56;86.21
64336;BME280;50672;53.362;-6.240;2023-03-18T00:25:59;100056.03;;;10.52;85.94
64336;BME280;50672;53.362;-6.240;2023-03-18T00:28:28;100048.91;;;10.51;86.10
64336;BME280;50672;53.362;-6.240;2023-03-18T00:31:01;100062.50;;;10.51;86.05
64336;BME280;50672;53.362;-6.240;2023-03-18T00:33:28;100065.63;;;10.48;86.10
64336;BME280;50672;53.362;-6.240;2023-03-18T00:35:55;100067.25;;;10.42;86.42
64336;BME280;50672;53.362;-6.240;2023-03-18T00:38:23;100075.94;;;10.38;86.31
64336;BME280;50672;53.362;-6.240;2023-03-18T00:40:51;100068.19;;;10.35;86.21
64336;BME280;50672;53.362;-6.240;2023-03-18T00:43:44;100067.03;;;10.29;86.12
64336;BME280;50672;53.362;-6.240;2023-03-18T00:46:25;100068.25;;;10.26;86.31
64336;BME280;50672;53.362;-6.240;2023-03-18T00:48:55;100074.72;;;10.25;86.72
64336;BME280;50672;53.362;-6.240;2023-03-18T00:51:23;100078.50;;;10.24;86.63
64336;BME280;50672;53.362;-6.240;2023-03-18T00:53:53;100074.56;;;10.27;86.69
64336;BME280;50672;53.362;-6.240;2023-03-18T00:56:23;100083.47;;;10.36;86.45
64336;BME280;50672;53.362;-6.240;2023-03-18T00:58:51;100078.31;;;10.41;86.92
64336;BME280;50672;53.362;-6.240;2023-03-18T01:01:20;100074.81;;;10.47;86.85
64336;BME280;50672;53.362;-6.240;2023-03-18T01:03:47;100076.13;;;10.51;86.58
64336;BME280;50672;53.362;-6.240;2023-03-18T01:06:21;100076.94;;;10.52;86.61
64336;BME280;50672;53.362;-6.240;2023-03-18T01:08:49;100077.63;;;10.54;86.92
64336;BME280;50672;53.362;-6.240;2023-03-18T01:11:17;100085.38;;;10.57;86.76
64336;BME280;50672;53.362;-6.240;2023-03-18T01:13:44;100081.16;;;10.54;86.92
64336;BME280;50672;53.362;-6.240;2023-03-18T01:16:11;100084.28;;;10.51;86.53
64336;BME280;50672;53.362;-6.240;2023-03-18T01:18:39;100082.19;;;10.53;86.57
64336;BME280;50672;53.362;-6.240;2023-03-18T01:21:08;100075.72;;;10.54;86.71
64336;BME280;50672;53.362;-6.240;2023-03-18T01:23:35;100076.75;;;10.53;86.82
64336;BME280;50672;53.362;-6.240;2023-03-18T01:26:03;100078.44;;;10.54;86.71
64336;BME280;50672;53.362;-6.240;2023-03-18T01:28:31;100080.16;;;10.55;86.98
64336;BME280;50672;53.362;-6.240;2023-03-18T01:30:59;100090.63;;;10.58;86.66
64336;BME280;50672;53.362;-6.240;2023-03-18T01:33:28;100090.91;;;10.64;86.67
64336;BME280;50672;53.362;-6.240;2023-03-18T01:35:59;100088.38;;;10.62;86.57
64336;BME280;50672;53.362;-6.240;2023-03-18T01:38:30;100094.38;;;10.57;86.87
64336;BME280;50672;53.362;-6.240;2023-03-18T01:40:58;100090.63;;;10.58;86.75
64336;BME280;50672;53.362;-6.240;2023-03-18T01:43:34;100089.34;;;10.54;86.77
64336;BME280;50672;53.362;-6.240;2023-03-18T01:46:38;100085.59;;;10.55;86.83
64336;BME280;50672;53.362;-6.240;2023-03-18T01:49:25;100096.91;;;10.59;86.84
64336;BME280;50672;53.362;-6.240;2023-03-18T01:52:18;100098.41;;;10.62;86.87
64336;BME280;50672;53.362;-6.240;2023-03-18T01:55:03;100099.72;;;10.66;86.62
64336;BME280;50672;53.362;-6.240;2023-03-18T01:57:32;100099.06;;;10.64;86.69
64336;BME280;50672;53.362;-6.240;2023-03-18T02:00:00;100100.09;;;10.63;86.53
64336;BME280;50672;53.362;-6.240;2023-03-18T02:02:30;100102.00;;;10.62;86.87
64336;BME280;50672;53.362;-6.240;2023-03-18T02:05:02;100104.53;;;10.64;86.75
64336;BME280;50672;53.362;-6.240;2023-03-18T02:07:31;100107.44;;;10.62;86.81
64336;BME280;50672;53.362;-6.240;2023-03-18T02:10:04;100106.34;;;10.56;86.87
64336;BME280;50672;53.362;-6.240;2023-03-18T02:12:33;100105.47;;;10.56;86.81
64336;BME280;50672;53.362;-6.240;2023-03-18T02:15:06;100112.78;;;10.55;86.92
64336;BME280;50672;53.362;-6.240;2023-03-18T02:17:37;100110.47;;;10.52;86.45
64336;BME280;50672;53.362;-6.240;2023-03-18T02:23:06;100118.03;;;10.57;86.56
64336;BME280;50672;53.362;-6.240;2023-03-18T02:25:51;100119.53;;;10.59;86.58
64336;BME280;50672;53.362;-6.240;2023-03-18T02:28:23;100118.53;;;10.60;86.83
64336;BME280;50672;53.362;-6.240;2023-03-18T02:30:53;100119.53;;;10.59;86.72
64336;BME280;50672;53.362;-6.240;2023-03-18T02:33:25;100122.28;;;10.59;86.82
64336;BME280;50672;53.362;-6.240;2023-03-18T02:35:58;100124.78;;;10.61;86.59
64336;BME280;50672;53.362;-6.240;2023-03-18T02:38:26;100124.78;;;10.61;86.76
64336;BME280;50672;53.362;-6.240;2023-03-18T02:40:53;100122.91;;;10.62;86.86
64336;BME280;50672;53.362;-6.240;2023-03-18T02:43:30;100121.88;;;10.63;86.56
64336;BME280;50672;53.362;-6.240;2023-03-18T02:46:11;100129.84;;;10.64;86.45
64336;BME280;50672;53.362;-6.240;2023-03-18T02:48:43;100134.25;;;10.65;86.46
64336;BME280;50672;53.362;-6.240;2023-03-18T02:51:12;100134.25;;;10.65;86.43
64336;BME280;50672;53.362;-6.240;2023-03-18T02:53:39;100136.16;;;10.65;86.38
64336;BME280;50672;53.362;-6.240;2023-03-18T02:56:08;100131.53;;;10.65;86.38
64336;BME280;50672;53.362;-6.240;2023-03-18T02:58:35;100137.81;;;10.66;86.68
64336;BME280;50672;53.362;-6.240;2023-03-18T03:01:03;100136.16;;;10.65;86.68
64336;BME280;50672;53.362;-6.240;2023-03-18T03:03:31;100142.81;;;10.62;86.66
64336;BME280;50672;53.362;-6.240;2023-03-18T03:05:58;100148.47;;;10.60;86.74
64336;BME280;50672;53.362;-6.240;2023-03-18T03:08:25;100148.63;;;10.59;86.59
64336;BME280;50672;53.362;-6.240;2023-03-18T03:10:52;100146.09;;;10.57;86.54
64336;BME280;50672;53.362;-6.240;2023-03-18T03:13:20;100146.47;;;10.54;86.51
64336;BME280;50672;53.362;-6.240;2023-03-18T03:15:48;100154.00;;;10.52;86.29
64336;BME280;50672;53.362;-6.240;2023-03-18T03:18:15;100150.41;;;10.52;86.70
64336;BME280;50672;53.362;-6.240;2023-03-18T03:20:42;100148.75;;;10.51;86.80
64336;BME280;50672;53.362;-6.240;2023-03-18T03:23:12;100152.31;;;10.51;86.49
64336;BME280;50672;53.362;-6.240;2023-03-18T03:25:40;100159.81;;;10.49;86.80
64336;BME280;50672;53.362;-6.240;2023-03-18T03:28:07;100162.28;;;10.44;86.71
64336;BME280;50672;53.362;-6.240;2023-03-18T03:30:35;100154.75;;;10.46;86.99
64336;BME280;50672;53.362;-6.240;2023-03-18T03:33:02;100155.41;;;10.48;86.76
64336;BME280;50672;53.362;-6.240;2023-03-18T03:35:29;100162.38;;;10.51;87.13
64336;BME280;50672;53.362;-6.240;2023-03-18T03:37:57;100163.19;;;10.51;87.03
64336;BME280;50672;53.362;-6.240;2023-03-18T03:40:24;100161.31;;;10.52;87.04
64336;BME280;50672;53.362;-6.240;2023-03-18T03:42:51;100167.59;;;10.52;86.68
64336;BME280;50672;53.362;-6.240;2023-03-18T03:45:18;100165.72;;;10.53;86.93
64336;BME280;50672;53.362;-6.240;2023-03-18T03:47:46;100173.25;;;10.51;87.00
64336;BME280;50672;53.362;-6.240;2023-03-18T03:50:14;100166.75;;;10.52;86.78
64336;BME280;50672;53.362;-6.240;2023-03-18T03:52:41;100167.41;;;10.54;86.89
64336;BME280;50672;53.362;-6.240;2023-03-18T03:55:11;100174.72;;;10.53;87.04
64336;BME280;50672;53.362;-6.240;2023-03-18T03:57:38;100180.53;;;10.50;86.79
64336;BME280;50672;53.362;-6.240;2023-03-18T04:00:10;100178.22;;;10.47;86.99
64336;BME280;50672;53.362;-6.240;2023-03-18T04:02:40;100182.53;;;10.41;87.08
64336;BME280;50672;53.362;-6.240;2023-03-18T04:05:11;100180.19;;;10.38;86.89
64336;BME280;50672;53.362;-6.240;2023-03-18T04:07:39;100175.09;;;10.35;87.10
64336;BME280;50672;53.362;-6.240;2023-03-18T04:10:08;100175.47;;;10.32;86.75
64336;BME280;50672;53.362;-6.240;2023-03-18T04:12:37;100179.41;;;10.30;87.19
64336;BME280;50672;53.362;-6.240;2023-03-18T04:15:05;100181.47;;;10.27;86.87
64336;BME280;50672;53.362;-6.240;2023-03-18T04:17:33;100178.94;;;10.26;87.28
64336;BME280;50672;53.362;-6.240;2023-03-18T04:20:00;100180.16;;;10.23;87.00
64336;BME280;50672;53.362;-6.240;2023-03-18T04:22:27;100183.72;;;10.24;87.34
64336;BME280;50672;53.362;-6.240;2023-03-18T04:24:55;100179.97;;;10.25;87.09
64336;BME280;50672;53.362;-6.240;2023-03-18T04:27:21;100177.06;;;10.26;87.41
64336;BME280;50672;53.362;-6.240;2023-03-18T04:29:48;100173.31;;;10.27;87.28
64336;BME280;50672;53.362;-6.240;2023-03-18T04:32:15;100177.06;;;10.26;87.41
64336;BME280;50672;53.362;-6.240;2023-03-18T04:34:42;100175.75;;;10.22;87.03
64336;BME280;50672;53.362;-6.240;2023-03-18T04:37:10;100172.19;;;10.22;87.42
64336;BME280;50672;53.362;-6.240;2023-03-18T04:39:39;100174.06;;;10.21;87.45
64336;BME280;50672;53.362;-6.240;2023-03-18T04:42:07;100166.84;;;10.14;87.40
64336;BME280;50672;53.362;-6.240;2023-03-18T04:44:33;100175.75;;;10.07;87.45
64336;BME280;50672;53.362;-6.240;2023-03-18T04:47:00;100177.63;;;10.07;87.62
64336;BME280;50672;53.362;-6.240;2023-03-18T04:49:27;100188.50;;;10.07;87.24
64336;BME280;50672;53.362;-6.240;2023-03-18T04:51:54;100182.88;;;10.08;87.29
64336;BME280;50672;53.362;-6.240;2023-03-18T04:54:21;100195.63;;;10.08;87.24
64336;BME280;50672;53.362;-6.240;2023-03-18T04:56:48;100191.03;;;10.08;87.24
64336;BME280;50672;53.362;-6.240;2023-03-18T04:59:15;100192.06;;;10.07;87.28
64336;BME280;50672;53.362;-6.240;2023-03-18T05:01:43;100193.94;;;10.07;87.45
64336;BME280;50672;53.362;-6.240;2023-03-18T05:04:10;100201.63;;;10.03;87.66
64336;BME280;50672;53.362;-6.240;2023-03-18T05:06:37;100206.78;;;9.98;87.42
64336;BME280;50672;53.362;-6.240;2023-03-18T05:09:04;100202.25;;;9.90;87.51
64336;BME280;50672;53.362;-6.240;2023-03-18T05:11:31;100196.53;;;9.85;87.86
64336;BME280;50672;53.362;-6.240;2023-03-18T05:13:58;100199.16;;;9.79;87.55
64336;BME280;50672;53.362;-6.240;2023-03-18T05:16:25;100211.78;;;9.71;87.80
64336;BME280;50672;53.362;-6.240;2023-03-18T05:18:52;100209.59;;;9.67;87.70
64336;BME280;50672;53.362;-6.240;2023-03-18T05:21:18;100210.84;;;9.64;87.65
64336;BME280;50672;53.362;-6.240;2023-03-18T05:23:45;100211.53;;;9.58;87.82
64336;BME280;50672;53.362;-6.240;2023-03-18T05:26:12;100211.25;;;9.53;87.79
64336;BME280;50672;53.362;-6.240;2023-03-18T05:28:39;100217.22;;;9.48;87.87
64336;BME280;50672;53.362;-6.240;2023-03-18T05:31:06;100215.44;;;9.40;88.01
64336;BME280;50672;53.362;-6.240;2023-03-18T05:33:33;100217.34;;;9.32;88.17
64336;BME280;50672;53.362;-6.240;2023-03-18T05:36:00;100217.41;;;9.23;88.17
64336;BME280;50672;53.362;-6.240;2023-03-18T05:38:27;100218.13;;;9.17;88.56
64336;BME280;50672;53.362;-6.240;2023-03-18T05:40:54;100221.72;;;9.10;88.34
64336;BME280;50672;53.362;-6.240;2023-03-18T05:43:21;100224.16;;;9.04;88.68
64336;BME280;50672;53.362;-6.240;2023-03-18T05:45:49;100224.66;;;9.00;88.46
64336;BME280;50672;53.362;-6.240;2023-03-18T05:48:16;100227.91;;;8.95;88.86
64336;BME280;50672;53.362;-6.240;2023-03-18T05:50:43;100229.63;;;8.96;88.67
64336;BME280;50672;53.362;-6.240;2023-03-18T05:53:10;100230.09;;;9.00;88.83
64336;BME280;50672;53.362;-6.240;2023-03-18T05:55:38;100232.13;;;9.06;88.83
64336;BME280;50672;53.362;-6.240;2023-03-18T05:58:06;100234.09;;;9.12;88.96
64336;BME280;50672;53.362;-6.240;2023-03-18T06:00:33;100232.72;;;9.16;89.14
64336;BME280;50672;53.362;-6.240;2023-03-18T06:03:00;100240.50;;;9.19;89.02
64336;BME280;50672;53.362;-6.240;2023-03-18T06:05:28;100241.84;;;9.23;89.14
64336;BME280;50672;53.362;-6.240;2023-03-18T06:07:55;100239.81;;;9.26;89.18
64336;BME280;50672;53.362;-6.240;2023-03-18T06:10:23;100233.03;;;9.21;89.26
64336;BME280;50672;53.362;-6.240;2023-03-18T06:12:51;100232.72;;;9.16;89.46
64336;BME280;50672;53.362;-6.240;2023-03-18T06:15:18;100244.59;;;9.15;89.45
64336;BME280;50672;53.362;-6.240;2023-03-18T06:17:47;100248.81;;;9.18;89.58
64336;BME280;50672;53.362;-6.240;2023-03-18T06:20:14;100253.06;;;9.20;89.51
64336;BME280;50672;53.362;-6.240;2023-03-18T06:22:41;100251.88;;;9.23;89.45
64336;BME280;50672;53.362;-6.240;2023-03-18T06:25:09;100254.41;;;9.24;89.06
64336;BME280;50672;53.362;-6.240;2023-03-18T06:27:36;100254.22;;;9.26;89.19
64336;BME280;50672;53.362;-6.240;2023-03-18T06:30:03;100261.53;;;9.26;89.32
64336;BME280;50672;53.362;-6.240;2023-03-18T06:32:31;100265.25;;;9.24;89.47
64336;BME280;50672;53.362;-6.240;2023-03-18T06:34:59;100261.72;;;9.24;89.26
64336;BME280;50672;53.362;-6.240;2023-03-18T06:37:27;100273.22;;;9.26;89.17
64336;BME280;50672;53.362;-6.240;2023-03-18T06:39:54;100266.09;;;9.25;89.13
64336;BME280;50672;53.362;-6.240;2023-03-18T06:42:21;100277.81;;;9.26;89.27
64336;BME280;50672;53.362;-6.240;2023-03-18T06:44:48;100273.22;;;9.26;89.16
64336;BME280;50672;53.362;-6.240;2023-03-18T06:47:18;100274.41;;;9.23;89.02
64336;BME280;50672;53.362;-6.240;2023-03-18T06:49:45;100287.34;;;9.21;88.93
64336;BME280;50672;53.362;-6.240;2023-03-18T06:52:12;100286.84;;;9.18;88.94
64336;BME280;50672;53.362;-6.240;2023-03-18T06:54:40;100292.47;;;9.16;88.95
64336;BME280;50672;53.362;-6.240;2023-03-18T06:57:07;100297.06;;;9.16;89.14
64336;BME280;50672;53.362;-6.240;2023-03-18T06:59:34;100298.91;;;9.15;88.97
64336;BME280;50672;53.362;-6.240;2023-03-18T07:02:02;100297.22;;;9.14;88.83
64336;BME280;50672;53.362;-6.240;2023-03-18T07:04:31;100304.34;;;9.15;88.69
64336;BME280;50672;53.362;-6.240;2023-03-18T07:06:59;100299.59;;;9.17;88.69
64336;BME280;50672;53.362;-6.240;2023-03-18T07:09:30;100307.56;;;9.19;88.66
64336;BME280;50672;53.362;-6.240;2023-03-18T07:11:59;100313.81;;;9.19;88.50
64336;BME280;50672;53.362;-6.240;2023-03-18T07:14:26;100324.16;;;9.24;88.61
64336;BME280;50672;53.362;-6.240;2023-03-18T07:16:54;100322.97;;;9.27;88.39
64336;BME280;50672;53.362;-6.240;2023-03-18T07:19:21;100336.84;;;9.32;88.12
64336;BME280;50672;53.362;-6.240;2023-03-18T07:21:49;100327.31;;;9.36;87.96
64336;BME280;50672;53.362;-6.240;2023-03-18T07:24:16;100326.13;;;9.38;87.85
64336;BME280;50672;53.362;-6.240;2023-03-18T07:26:43;100330.34;;;9.41;87.96
64336;BME280;50672;53.362;-6.240;2023-03-18T07:29:09;100332.34;;;9.47;87.80
64336;BME280;50672;53.362;-6.240;2023-03-18T07:31:36;100342.34;;;9.55;87.49
64336;BME280;50672;53.362;-6.240;2023-03-18T07:34:03;100344.13;;;9.63;87.36
64336;BME280;50672;53.362;-6.240;2023-03-18T07:36:31;100342.75;;;9.67;87.53
64336;BME280;50672;53.362;-6.240;2023-03-18T07:38:57;100346.47;;;9.74;87.05
64336;BME280;50672;53.362;-6.240;2023-03-18T07:41:25;100354.19;;;9.85;87.38
64336;BME280;50672;53.362;-6.240;2023-03-18T07:43:52;100350.38;;;9.95;87.26
64336;BME280;50672;53.362;-6.240;2023-03-18T07:46:19;100357.47;;;10.04;86.84
64336;BME280;50672;53.362;-6.240;2023-03-18T07:48:46;100357.41;;;10.12;86.72
64336;BME280;50672;53.362;-6.240;2023-03-18T07:51:14;100363.16;;;10.17;86.41
64336;BME280;50672;53.362;-6.240;2023-03-18T07:53:41;100357.16;;;10.22;86.54
64336;BME280;50672;53.362;-6.240;2023-03-18T07:56:08;100362.72;;;10.29;86.11
64336;BME280;50672;53.362;-6.240;2023-03-18T07:58:36;100361.31;;;10.33;86.05
64336;BME280;50672;53.362;-6.240;2023-03-18T08:01:03;100361.63;;;10.38;86.06
64336;BME280;50672;53.362;-6.240;2023-03-18T08:03:30;100365.00;;;10.40;85.91
64336;BME280;50672;53.362;-6.240;2023-03-18T08:05:57;100369.25;;;10.42;85.71
64336;BME280;50672;53.362;-6.240;2023-03-18T08:08:24;100369.06;;;10.44;85.48
64336;BME280;50672;53.362;-6.240;2023-03-18T08:10:56;100374.97;;;10.48;85.57
64336;BME280;50672;53.362;-6.240;2023-03-18T08:13:22;100384.25;;;10.53;85.05
64336;BME280;50672;53.362;-6.240;2023-03-18T08:15:51;100383.16;;;10.63;85.03
64336;BME280;50672;53.362;-6.240;2023-03-18T08:18:18;100383.09;;;10.71;84.88
64336;BME280;50672;53.362;-6.240;2023-03-18T08:20:45;100389.28;;;10.80;85.13
64336;BME280;50672;53.362;-6.240;2023-03-18T08:23:12;100392.59;;;10.90;84.59
64336;BME280;50672;53.362;-6.240;2023-03-18T08:25:40;100390.06;;;11.03;84.72
64336;BME280;50672;53.362;-6.240;2023-03-18T08:28:07;100397.22;;;11.19;84.71
64336;BME280;50672;53.362;-6.240;2023-03-18T08:30:34;100392.97;;;11.32;84.13
64336;BME280;50672;53.362;-6.240;2023-03-18T08:33:01;100396.88;;;11.44;83.79
64336;BME280;50672;53.362;-6.240;2023-03-18T08:35:28;100398.75;;;11.58;83.88
64336;BME280;50672;53.362;-6.240;2023-03-18T08:37:55;100400.41;;;11.74;83.52
64336;BME280;50672;53.362;-6.240;2023-03-18T08:40:22;100407.53;;;11.90;82.97
64336;BME280;50672;53.362;-6.240;2023-03-18T08:42:49;100401.00;;;12.06;82.96
64336;BME280;50672;53.362;-6.240;2023-03-18T08:45:16;100400.94;;;12.21;82.34
64336;BME280;50672;53.362;-6.240;2023-03-18T08:47:43;100408.41;;;12.34;81.79
64336;BME280;50672;53.362;-6.240;2023-03-18T08:50:11;100414.13;;;12.39;81.69
64336;BME280;50672;53.362;-6.240;2023-03-18T08:52:38;100411.00;;;12.42;81.38
64336;BME280;50672;53.362;-6.240;2023-03-18T08:55:07;100414.75;;;12.41;80.78
64336;BME280;50672;53.362;-6.240;2023-03-18T08:57:35;100412.22;;;12.40;80.82
64336;BME280;50672;53.362;-6.240;2023-03-18T09:00:03;100413.66;;;12.36;80.39
64336;BME280;50672;53.362;-6.240;2023-03-18T09:02:31;100417.63;;;12.33;79.85
64336;BME280;50672;53.362;-6.240;2023-03-18T09:04:59;100418.03;;;12.30;79.75
64336;BME280;50672;53.362;-6.240;2023-03-18T09:07:26;100418.84;;;12.30;79.12
64336;BME280;50672;53.362;-6.240;2023-03-18T09:09:53;100419.06;;;12.29;78.75
64336;BME280;50672;53.362;-6.240;2023-03-18T09:12:20;100417.56;;;12.26;78.84
64336;BME280;50672;53.362;-6.240;2023-03-18T09:14:47;100419.25;;;12.27;78.64
64336;BME280;50672;53.362;-6.240;2023-03-18T09:17:14;100416.53;;;12.27;78.28
64336;BME280;50672;53.362;-6.240;2023-03-18T09:19:42;100422.84;;;12.28;78.23
64336;BME280;50672;53.362;-6.240;2023-03-18T09:22:08;100421.59;;;12.30;77.64
64336;BME280;50672;53.362;-6.240;2023-03-18T09:24:35;100419.53;;;12.33;77.57
64336;BME280;50672;53.362;-6.240;2023-03-18T09:27:05;100419.59;;;12.39;77.33
64336;BME280;50672;53.362;-6.240;2023-03-18T09:29:32;100430.38;;;12.47;77.06
64336;BME280;50672;53.362;-6.240;2023-03-18T09:31:59;100429.38;;;12.55;76.99
64336;BME280;50672;53.362;-6.240;2023-03-18T09:34:26;100426.72;;;12.62;76.60
64336;BME280;50672;53.362;-6.240;2023-03-18T09:36:52;100427.00;;;12.74;76.57
64336;BME280;50672;53.362;-6.240;2023-03-18T09:39:20;100424.72;;;12.77;76.26
64336;BME280;50672;53.362;-6.240;2023-03-18T09:44:32;100434.47;;;12.87;75.72
64336;BME280;50672;53.362;-6.240;2023-03-18T09:50:14;100443.91;;;12.84;75.59
64336;BME280;50672;53.362;-6.240;2023-03-18T09:52:52;100447.03;;;12.81;75.15
64336;BME280;50672;53.362;-6.240;2023-03-18T09:55:41;100453.34;;;12.81;75.14
64336;BME280;50672;53.362;-6.240;2023-03-18T09:58:26;100455.38;;;12.73;75.04
64336;BME280;50672;53.362;-6.240;2023-03-18T10:00:58;100454.91;;;12.69;74.51
64336;BME280;50672;53.362;-6.240;2023-03-18T10:06:15;100456.41;;;12.72;74.21
64336;BME280;50672;53.362;-6.240;2023-03-18T10:08:52;100463.56;;;12.73;74.14
64336;BME280;50672;53.362;-6.240;2023-03-18T10:19:20;100473.00;;;12.98;74.14
64336;BME280;50672;53.362;-6.240;2023-03-18T10:21:49;100470.34;;;13.05;73.88
64336;BME280;50672;53.362;-6.240;2023-03-18T10:27:20;100486.41;;;12.93;73.62
64336;BME280;50672;53.362;-6.240;2023-03-18T10:32:27;100490.56;;;12.89;73.86
64336;BME280;50672;53.362;-6.240;2023-03-18T10:35:35;100491.72;;;12.95;73.69
64336;BME280;50672;53.362;-6.240;2023-03-18T10:38:24;100483.00;;;13.13;73.69
64336;BME280;50672;53.362;-6.240;2023-03-18T10:40:53;100495.31;;;13.30;73.67
64336;BME280;50672;53.362;-6.240;2023-03-18T10:43:25;100488.03;;;13.38;73.66
64336;BME280;50672;53.362;-6.240;2023-03-18T10:46:02;100495.66;;;13.49;73.47
64336;BME280;50672;53.362;-6.240;2023-03-18T10:48:35;100495.72;;;13.56;73.58
64336;BME280;50672;53.362;-6.240;2023-03-18T10:54:22;100488.97;;;13.52;73.20
64336;BME280;50672;53.362;-6.240;2023-03-18T10:56:50;100500.94;;;13.50;73.12
64336;BME280;50672;53.362;-6.240;2023-03-18T10:59:21;100499.47;;;13.48;73.14
64336;BME280;50672;53.362;-6.240;2023-03-18T11:01:57;100505.13;;;13.46;73.19
64336;BME280;50672;53.362;-6.240;2023-03-18T11:04:26;100502.56;;;13.38;73.17
64336;BME280;50672;53.362;-6.240;2023-03-18T11:07:00;100506.66;;;13.27;73.18
64336;BME280;50672;53.362;-6.240;2023-03-18T11:09:36;100514.13;;;13.12;73.26
64336;BME280;50672;53.362;-6.240;2023-03-18T11:12:06;100526.22;;;13.03;73.58
64336;BME280;50672;53.362;-6.240;2023-03-18T11:14:39;100526.34;;;12.94;73.98
64336;BME280;50672;53.362;-6.240;2023-03-18T11:17:30;100529.88;;;12.88;74.01
64336;BME280;50672;53.362;-6.240;2023-03-18T11:20:04;100530.28;;;12.85;74.24
64336;BME280;50672;53.362;-6.240;2023-03-18T11:22:35;100521.69;;;12.88;74.74
64336;BME280;50672;53.362;-6.240;2023-03-18T11:25:20;100523.00;;;12.92;74.81
64336;BME280;50672;53.362;-6.240;2023-03-18T11:27:50;100527.84;;;12.97;75.06
64336;BME280;50672;53.362;-6.240;2023-03-18T11:30:21;100527.06;;;13.03;75.39
64336;BME280;50672;53.362;-6.240;2023-03-18T11:35:38;100533.78;;;13.01;75.13
64336;BME280;50672;53.362;-6.240;2023-03-18T11:38:08;100531.41;;;12.97;75.35
64336;BME280;50672;53.362;-6.240;2023-03-18T11:40:39;100533.72;;;12.94;75.11
64336;BME280;50672;53.362;-6.240;2023-03-18T11:43:16;100541.06;;;12.93;75.39
64336;BME280;50672;53.362;-6.240;2023-03-18T11:45:48;100543.78;;;12.93;75.24
64336;BME280;50672;53.362;-6.240;2023-03-18T11:48:33;100543.28;;;12.83;75.41
64336;BME280;50672;53.362;-6.240;2023-03-18T11:56:22;100555.13;;;12.69;76.21
64336;BME280;50672;53.362;-6.240;2023-03-18T12:08:00;100576.50;;;12.28;77.71
64336;BME280;50672;53.362;-6.240;2023-03-18T12:26:52;100614.91;;;11.97;77.76
64336;BME280;50672;53.362;-6.240;2023-03-18T12:29:46;100622.59;;;11.93;78.11
64336;BME280;50672;53.362;-6.240;2023-03-18T12:43:51;100650.50;;;11.66;77.28
64336;BME280;50672;53.362;-6.240;2023-03-18T12:51:43;100662.94;;;11.45;76.74
64336;BME280;50672;53.362;-6.240;2023-03-18T12:54:22;100669.81;;;11.41;76.34
64336;BME280;50672;53.362;-6.240;2023-03-18T12:56:54;100669.69;;;11.34;76.68
64336;BME280;50672;53.362;-6.240;2023-03-18T12:59:35;100681.25;;;11.36;76.40
64336;BME280;50672;53.362;-6.240;2023-03-18T13:02:24;100677.84;;;11.57;76.59
64336;BME280;50672;53.362;-6.240;2023-03-18T13:05:00;100686.25;;;11.71;76.24
64336;BME280;50672;53.362;-6.240;2023-03-18T13:07:36;100694.00;;;11.97;75.79
64336;BME280;50672;53.362;-6.240;2023-03-18T13:10:23;100697.66;;;12.79;75.59
64336;BME280;50672;53.362;-6.240;2023-03-18T13:12:53;100707.44;;;13.46;75.29
64336;BME280;50672;53.362;-6.240;2023-03-18T13:15:29;100707.41;;;13.40;75.08
64336;BME280;50672;53.362;-6.240;2023-03-18T13:20:48;100715.22;;;12.55;73.82
64336;BME280;50672;53.362;-6.240;2023-03-18T13:23:34;100718.16;;;12.53;73.78
64336;BME280;50672;53.362;-6.240;2023-03-18T13:29:01;100724.53;;;12.45;73.33
64336;BME280;50672;53.362;-6.240;2023-03-18T13:31:52;100726.03;;;12.33;73.28
64336;BME280;50672;53.362;-6.240;2023-03-18T13:40:25;100730.63;;;13.72;72.71
64336;BME280;50672;53.362;-6.240;2023-03-18T13:42:59;100717.63;;;14.02;72.51
64336;BME280;50672;53.362;-6.240;2023-03-18T13:45:37;100718.00;;;13.99;71.50
64336;BME280;50672;53.362;-6.240;2023-03-18T13:48:09;100715.16;;;13.58;70.87
64336;BME280;50672;53.362;-6.240;2023-03-18T13:50:39;100724.44;;;13.20;70.86
64336;BME280;50672;53.362;-6.240;2023-03-18T13:53:32;100727.31;;;12.82;70.29
64336;BME280;50672;53.362;-6.240;2023-03-18T13:56:06;100727.38;;;12.37;70.19
64336;BME280;50672;53.362;-6.240;2023-03-18T13:58:51;100738.56;;;11.89;69.71
64336;BME280;50672;53.362;-6.240;2023-03-18T14:01:27;100748.28;;;11.69;69.96
64336;BME280;50672;53.362;-6.240;2023-03-18T14:03:58;100746.31;;;11.62;69.77
64336;BME280;50672;53.362;-6.240;2023-03-18T14:11:51;100752.22;;;11.89;69.33
64336;BME280;50672;53.362;-6.240;2023-03-18T14:17:25;100770.75;;;12.17;68.90
64336;BME280;50672;53.362;-6.240;2023-03-18T14:19:55;100768.56;;;13.02;68.90
64336;BME280;50672;53.362;-6.240;2023-03-18T14:22:29;100776.53;;;17.31;68.37
64336;BME280;50672;53.362;-6.240;2023-03-18T14:25:19;100769.69;;;19.10;66.73
64336;BME280;50672;53.362;-6.240;2023-03-18T14:27:58;100772.66;;;20.59;64.53
64336;BME280;50672;53.362;-6.240;2023-03-18T14:40:57;100780.63;;;14.38;60.20
64336;BME280;50672;53.362;-6.240;2023-03-18T14:43:34;100790.31;;;13.62;60.21
64336;BME280;50672;53.362;-6.240;2023-03-18T14:46:07;100788.16;;;13.06;60.13
64336;BME280;50672;53.362;-6.240;2023-03-18T14:48:34;100805.41;;;12.76;60.58